Time;durP1;ratioP1;P1;durP2;ratioP2;P2;SDS_P1;SDS_P2;PMS_P1;PMS_P2;Temp;Humidity;BMP_temperature;BMP_pressure;BME280_temperature;BME280_humidity;BME280_pressure;Samples;Min_cycle;Max_cycle;Signal;HPM_P1;HPM_P2
2022/04/05 00:01:23;;;;;;;5.00;3.47;;;;;;;4.89;74.59;94453.44;5026344;28;20211;-74
2022/04/05 00:03:50;;;;;;;13.55;4.53;;;;;;;4.81;75.31;94465.63;5025034;28;20224;-74
2022/04/05 00:06:17;;;;;;;7.63;3.50;;;;;;;4.63;76.33;94461.13;5019255;28;20197;-75
2022/04/05 00:08:44;;;;;;;6.85;3.17;;;;;;;4.60;76.28;94461.69;5021134;28;20208;-75
2022/04/05 00:11:12;;;;;;;8.55;4.65;;;;;;;4.61;76.42;94456.03;5019627;28;20276;-75
2022/04/05 00:13:39;;;;;;;8.35;5.07;;;;;;;4.64;76.13;94454.66;5019388;28;20818;-75
2022/04/05 00:16:06;;;;;;;9.82;4.68;;;;;;;4.68;75.98;94446.81;5026095;28;20217;-75
2022/04/05 00:18:33;;;;;;;5.07;3.28;;;;;;;4.72;75.66;94445.94;5026251;28;20210;-74
2022/04/05 00:21:00;;;;;;;8.80;4.55;;;;;;;4.70;75.35;94445.44;5019588;28;20212;-76
2022/04/05 00:23:27;;;;;;;7.60;3.83;;;;;;;4.73;75.38;94452.09;5021925;28;20235;-75
2022/04/05 00:25:54;;;;;;;9.05;4.95;;;;;;;4.77;75.20;94432.44;5024894;28;20208;-75
2022/04/05 00:28:22;;;;;;;9.60;4.88;;;;;;;4.62;75.76;94446.13;5025924;28;20297;-75
2022/04/05 00:30:49;;;;;;;14.93;6.72;;;;;;;4.53;75.73;94440.63;5020086;28;20224;-75
2022/04/05 00:33:16;;;;;;;9.82;4.95;;;;;;;4.44;76.30;94436.22;5018566;28;20204;-76
2022/04/05 00:35:43;;;;;;;11.27;5.10;;;;;;;4.43;76.50;94434.63;5023982;28;20310;-75
2022/04/05 00:38:10;;;;;;;8.43;4.45;;;;;;;4.38;76.77;94434.69;5025270;28;20997;-75
2022/04/05 00:40:37;;;;;;;10.15;4.85;;;;;;;4.31;77.41;94442.34;5020502;28;20687;-74
2022/04/05 00:43:05;;;;;;;10.80;5.05;;;;;;;4.23;77.90;94441.94;5018848;28;20197;-74
2022/04/05 00:45:34;;;;;;;4.68;2.67;;;;;;;4.24;77.95;94440.00;5023388;28;20237;-74
2022/04/05 00:48:03;;;;;;;14.98;5.43;;;;;;;4.11;78.50;94438.88;5025107;28;20211;-74
2022/04/05 00:50:34;;;;;;;10.93;4.97;;;;;;;4.10;78.84;94442.63;5020945;28;20202;-75
2022/04/05 00:53:03;;;;;;;10.27;5.60;;;;;;;4.12;78.73;94429.75;5018892;28;20211;-75
2022/04/05 00:55:32;;;;;;;12.60;6.13;;;;;;;4.08;78.45;94427.97;5021712;28;20292;-75
2022/04/05 00:58:02;;;;;;;10.13;5.13;;;;;;;4.18;78.52;94420.56;5025794;28;20232;-74
2022/04/05 01:00:30;;;;;;;11.85;5.45;;;;;;;4.25;77.81;94431.69;5023094;28;20232;-75
2022/04/05 01:03:00;;;;;;;17.20;7.43;;;;;;;4.22;78.09;94423.44;5026274;28;20271;-74
2022/04/05 01:05:28;;;;;;;11.50;5.93;;;;;;;4.14;78.34;94426.78;5022526;28;20598;-74
2022/04/05 01:07:59;;;;;;;7.70;5.40;;;;;;;4.13;78.54;94420.63;5018355;28;20692;-75
2022/04/05 01:10:27;;;;;;;13.52;5.55;;;;;;;4.09;78.82;94422.31;5018342;28;20203;-75
2022/04/05 01:12:54;;;;;;;9.93;4.78;;;;;;;4.01;79.15;94417.59;5024782;28;20632;-75
2022/04/05 01:15:21;;;;;;;8.23;4.70;;;;;;;3.94;79.76;94417.19;5024419;28;20211;-75
2022/04/05 01:17:48;;;;;;;12.38;5.30;;;;;;;3.92;79.94;94414.00;5019046;28;20216;-75
2022/04/05 01:20:17;;;;;;;10.45;5.43;;;;;;;3.92;79.98;94416.66;5017289;28;20205;-75
2022/04/05 01:22:51;;;;;;;12.18;5.20;;;;;;;3.90;79.85;94414.28;5024149;28;20205;-75
2022/04/05 01:25:20;;;;;;;9.82;4.63;;;;;;;3.97;80.23;94419.25;5016647;28;20201;-75
2022/04/05 01:27:48;;;;;;;9.57;5.80;;;;;;;3.96;79.78;94425.72;5022318;28;20204;-75
2022/04/05 01:30:15;;;;;;;10.73;6.13;;;;;;;3.93;79.84;94428.97;5024097;28;20205;-75
2022/04/05 01:32:42;;;;;;;8.65;4.55;;;;;;;3.98;79.94;94420.84;5021266;28;20223;-74
2022/04/05 01:35:10;;;;;;;11.40;5.57;;;;;;;4.18;79.33;94417.06;5018308;28;20228;-75
2022/04/05 01:37:38;;;;;;;9.55;4.78;;;;;;;4.17;79.03;94416.28;5031187;28;20263;-75
2022/04/05 01:40:06;;;;;;;9.77;5.35;;;;;;;4.18;78.98;94412.50;5017835;28;20219;-75
2022/04/05 01:42:37;;;;;;;10.00;5.60;;;;;;;4.20;78.99;94421.06;5019811;28;20549;-75
2022/04/05 01:45:04;;;;;;;10.50;5.30;;;;;;;4.12;78.83;94427.06;5024574;28;20763;-75
2022/04/05 01:47:32;;;;;;;8.77;4.97;;;;;;;4.03;78.99;94415.44;5022869;28;20204;-74
2022/04/05 01:49:59;;;;;;;12.10;5.60;;;;;;;4.01;78.83;94417.59;5025683;28;20205;-75
2022/04/05 01:52:26;;;;;;;10.40;4.80;;;;;;;3.86;79.11;94409.78;5023361;28;20240;-74
2022/04/05 01:54:52;;;;;;;10.02;5.32;;;;;;;3.88;78.97;94418.34;5017847;28;20208;-74
2022/04/05 01:57:19;;;;;;;10.32;5.05;;;;;;;3.87;79.26;94416.72;5018375;28;20651;-75
2022/04/05 01:59:48;;;;;;;9.82;5.60;;;;;;;3.93;79.24;94410.22;5011499;28;20208;-75
2022/04/05 02:02:14;;;;;;;11.32;6.05;;;;;;;3.74;80.13;94407.53;5023907;28;20279;-75
2022/04/05 02:04:41;;;;;;;8.60;5.20;;;;;;;3.67;80.38;94409.00;5017779;28;20212;-75
2022/04/05 02:07:11;;;;;;;9.85;5.60;;;;;;;3.70;80.44;94405.72;5018028;28;20205;-75
2022/04/05 02:09:38;;;;;;;12.07;4.68;;;;;;;3.80;80.06;94416.31;5018213;28;20643;-75
2022/04/05 02:12:05;;;;;;;10.18;5.25;;;;;;;3.74;80.02;94396.03;5030218;28;20306;-75
2022/04/05 02:14:32;;;;;;;7.82;5.00;;;;;;;3.69;79.98;94393.44;5022469;28;20732;-75
2022/04/05 02:17:00;;;;;;;9.85;5.13;;;;;;;3.69;80.16;94399.56;5024159;28;20209;-75
2022/04/05 02:19:27;;;;;;;10.65;4.50;;;;;;;3.71;79.82;94391.25;5029424;28;20663;-75
2022/04/05 02:21:55;;;;;;;8.48;4.40;;;;;;;3.79;79.57;94387.94;5030660;28;20199;-75
2022/04/05 02:24:22;;;;;;;9.55;4.57;;;;;;;3.84;79.04;94390.53;5025920;28;20575;-75
2022/04/05 02:26:49;;;;;;;12.30;4.88;;;;;;;3.77;79.48;94379.38;5024152;28;20254;-75
2022/04/05 02:29:16;;;;;;;7.93;4.35;;;;;;;3.76;79.26;94378.59;5029090;28;20205;-75
2022/04/05 02:31:43;;;;;;;9.20;5.38;;;;;;;3.70;79.38;94384.31;5030867;28;20301;-75
2022/04/05 02:34:11;;;;;;;9.80;4.88;;;;;;;3.58;79.43;94377.50;5026132;28;20207;-75
2022/04/05 02:36:38;;;;;;;10.43;5.68;;;;;;;3.59;79.61;94367.59;5023838;28;20209;-75
2022/04/05 02:39:06;;;;;;;12.27;5.20;;;;;;;3.56;79.99;94370.84;5028144;28;20205;-75
2022/04/05 02:41:33;;;;;;;7.57;4.75;;;;;;;3.47;80.16;94370.72;5030234;28;20211;-75
2022/04/05 02:44:00;;;;;;;9.10;4.28;;;;;;;3.33;80.82;94369.81;5026732;28;20289;-75
2022/04/05 02:46:27;;;;;;;9.93;4.82;;;;;;;3.30;80.73;94375.75;5023714;28;20211;-75
2022/04/05 02:48:54;;;;;;;5.90;4.15;;;;;;;3.11;81.29;94378.41;5027867;28;20204;-75
2022/04/05 02:51:24;;;;;;;7.03;3.75;;;;;;;3.09;81.34;94371.75;5030629;28;20264;-75
2022/04/05 02:53:51;;;;;;;8.45;4.35;;;;;;;3.10;81.15;94373.34;5027437;28;20570;-74
2022/04/05 02:56:17;;;;;;;11.02;4.72;;;;;;;3.02;81.68;94379.31;5023930;28;20338;-75
2022/04/05 02:58:47;;;;;;;10.85;4.97;;;;;;;3.12;81.43;94363.16;5026722;28;20204;-75
2022/04/05 03:01:15;;;;;;;8.88;4.20;;;;;;;3.26;81.33;94364.06;5030019;28;20689;-75
2022/04/05 03:03:43;;;;;;;10.02;4.78;;;;;;;3.38;80.91;94361.75;5028293;28;20578;-75
2022/04/05 03:06:11;;;;;;;8.15;3.67;;;;;;;3.49;80.72;94357.03;5023509;28;20219;-74
2022/04/05 03:08:40;;;;;;;8.48;4.45;;;;;;;3.61;80.13;94362.75;5025298;28;20205;-74
2022/04/05 03:11:07;;;;;;;8.18;4.60;;;;;;;3.62;79.72;94360.88;5036015;28;20212;-74
2022/04/05 03:13:34;;;;;;;9.52;4.90;;;;;;;3.56;79.85;94362.81;5024088;28;20640;-75
2022/04/05 03:16:01;;;;;;;8.65;4.45;;;;;;;3.51;79.75;94353.00;5030666;28;20208;-74
2022/04/05 03:18:28;;;;;;;7.70;4.25;;;;;;;3.43;80.01;94353.63;5030080;28;20201;-74
2022/04/05 03:20:55;;;;;;;6.93;4.10;;;;;;;3.16;80.62;94353.44;5023370;28;20212;-74
2022/04/05 03:23:22;;;;;;;13.57;4.60;;;;;;;3.14;81.09;94350.28;5023283;28;20213;-75
2022/04/05 03:25:50;;;;;;;6.07;3.80;;;;;;;3.19;80.54;94353.69;5020743;28;20287;-76
2022/04/05 03:28:18;;;;;;;10.65;4.78;;;;;;;3.05;80.51;94352.00;5020286;28;20204;-74
2022/04/05 03:30:47;;;;;;;7.43;3.63;;;;;;;2.93;82.05;94356.97;5026244;28;20208;-74
2022/04/05 03:33:14;;;;;;;6.28;3.58;;;;;;;2.78;82.31;94358.75;5026187;28;20239;-74
2022/04/05 03:35:41;;;;;;;8.30;3.70;;;;;;;2.84;82.22;94352.25;5020735;28;20233;-75
2022/04/05 03:38:09;;;;;;;7.32;3.85;;;;;;;2.97;82.25;94355.31;5020211;28;20204;-75
2022/04/05 03:40:36;;;;;;;19.90;5.57;;;;;;;2.99;81.94;94355.84;5025664;28;20267;-76
2022/04/05 03:43:05;;;;;;;7.90;3.80;;;;;;;2.99;81.89;94350.50;5026447;28;20204;-74
2022/04/05 03:45:32;;;;;;;9.88;4.43;;;;;;;2.90;81.88;94352.19;5020725;28;20699;-75
2022/04/05 03:47:59;;;;;;;13.63;4.70;;;;;;;2.76;82.56;94355.56;5032039;28;20212;-75
2022/04/05 03:50:26;;;;;;;11.68;4.35;;;;;;;2.78;82.65;94353.41;5032437;28;20204;-75
2022/04/05 03:52:54;;;;;;;8.88;5.20;;;;;;;2.76;82.81;94358.22;5018149;28;20568;-75
2022/04/05 03:55:21;;;;;;;12.25;4.82;;;;;;;2.68;83.00;94353.53;5012789;28;20664;-74
2022/04/05 03:57:48;;;;;;;11.48;5.57;;;;;;;2.64;83.57;94352.47;5012407;28;20679;-75
2022/04/05 04:00:17;;;;;;;10.23;4.75;;;;;;;2.63;83.75;94356.25;5012597;28;20205;-75
2022/04/05 04:02:44;;;;;;;20.45;8.02;;;;;;;2.46;84.17;94347.88;5012433;28;20730;-75
2022/04/05 04:05:16;;;;;;;13.20;6.18;;;;;;;2.41;84.56;94355.94;5013262;28;20248;-75
2022/04/05 04:07:44;;;;;;;14.63;6.57;;;;;;;2.44;84.75;94350.84;5013277;28;20209;-75
2022/04/05 04:10:10;;;;;;;22.02;10.15;;;;;;;2.55;84.70;94353.41;5024390;28;20197;-75
2022/04/05 04:12:37;;;;;;;20.25;9.75;;;;;;;2.72;83.72;94353.75;5013853;28;20460;-74
2022/04/05 04:15:05;;;;;;;20.73;8.20;;;;;;;2.84;84.00;94351.47;5024714;28;20230;-74
2022/04/05 04:17:33;;;;;;;21.45;8.65;;;;;;;3.01;83.22;94353.66;5032738;28;20215;-77
2022/04/05 04:20:00;;;;;;;12.80;7.15;;;;;;;3.12;82.52;94344.44;5032803;28;20204;-76
2022/04/05 04:22:27;;;;;;;15.93;5.93;;;;;;;3.25;82.13;94357.09;5031915;28;20212;-77
2022/04/05 04:24:56;;;;;;;14.52;6.00;;;;;;;3.25;82.00;94362.44;5018645;28;20264;-76
2022/04/05 04:27:23;;;;;;;21.65;7.63;;;;;;;3.41;81.27;94355.81;5018798;28;20232;-76
2022/04/05 04:29:50;;;;;;;10.13;6.25;;;;;;;3.22;81.22;94363.03;5031661;28;20211;-76
2022/04/05 04:32:17;;;;;;;14.02;6.40;;;;;;;2.87;82.19;94366.16;5032168;28;20243;-76
2022/04/05 04:34:45;;;;;;;11.07;6.82;;;;;;;2.83;82.96;94361.38;5032177;28;20355;-75
2022/04/05 04:37:13;;;;;;;11.43;5.93;;;;;;;3.15;82.08;94370.59;5012427;28;20200;-75
2022/04/05 04:39:40;;;;;;;12.77;6.85;;;;;;;3.29;81.16;94376.84;5012275;28;20676;-76
2022/04/05 04:42:08;;;;;;;13.52;5.78;;;;;;;3.08;81.88;94372.84;5012024;28;20209;-75
2022/04/05 04:44:35;;;;;;;19.73;7.75;;;;;;;3.01;81.95;94381.19;5011303;28;20260;-76
2022/04/05 04:47:01;;;;;;;13.55;6.65;;;;;;;3.11;82.00;94372.28;5012183;28;20597;-76
2022/04/05 04:49:28;;;;;;;11.82;5.78;;;;;;;3.27;81.45;94371.00;5011918;28;20698;-76
2022/04/05 04:51:57;;;;;;;15.63;7.13;;;;;;;3.14;81.56;94377.81;5012064;28;20830;-76
2022/04/05 04:54:23;;;;;;;10.35;5.68;;;;;;;2.99;82.19;94375.38;5012166;28;20208;-76
2022/04/05 04:56:50;;;;;;;13.20;6.72;;;;;;;3.07;82.17;94369.38;5011740;28;20212;-76
2022/04/05 04:59:17;;;;;;;7.72;3.63;;;;;;;3.06;81.96;94380.34;5011722;28;20616;-76
2022/04/05 05:01:44;;;;;;;12.25;6.75;;;;;;;2.96;81.90;94377.81;5012368;28;20201;-77
2022/04/05 05:04:11;;;;;;;18.77;7.43;;;;;;;3.06;82.01;94380.34;5011679;28;20407;-75
2022/04/05 05:06:38;;;;;;;14.27;6.45;;;;;;;3.07;82.36;94384.63;5019531;28;20208;-76
2022/04/05 05:09:06;;;;;;;17.80;6.55;;;;;;;3.16;82.20;94385.56;5031832;28;20604;-75
2022/04/05 05:11:33;;;;;;;11.07;6.35;;;;;;;3.30;81.54;94380.31;5021891;28;20715;-76
2022/04/05 05:14:00;;;;;;;18.88;7.53;;;;;;;3.46;80.74;94379.81;5011276;28;20240;-76
2022/04/05 05:16:27;;;;;;;16.35;6.88;;;;;;;3.74;80.31;94375.41;5011331;28;20902;-76
2022/04/05 05:18:54;;;;;;;13.88;7.03;;;;;;;3.80;79.82;94382.28;5011720;28;20204;-76
2022/04/05 05:21:23;;;;;;;15.35;6.35;;;;;;;4.17;78.94;94373.38;5011791;28;20606;-77
2022/04/05 05:23:50;;;;;;;14.20;6.50;;;;;;;4.34;78.46;94372.06;5017218;28;20207;-77
2022/04/05 05:26:18;;;;;;;18.90;7.57;;;;;;;4.52;77.64;94380.00;5031515;28;20204;-76
2022/04/05 05:28:45;;;;;;;12.05;7.05;;;;;;;4.85;77.54;94378.06;5030780;28;20588;-76
2022/04/05 05:31:12;;;;;;;13.95;7.78;;;;;;;5.41;75.83;94379.63;5031534;28;20291;-77
2022/04/05 05:33:39;;;;;;;11.43;6.78;;;;;;;6.00;73.87;94380.53;5026513;28;20236;-76
2022/04/05 05:36:06;;;;;;;15.13;7.82;;;;;;;6.48;71.08;94375.28;5011773;28;20212;-77
2022/04/05 05:38:33;;;;;;;16.63;8.68;;;;;;;6.95;69.46;94378.41;5028925;28;20213;-76
2022/04/05 05:41:00;;;;;;;23.65;10.10;;;;;;;7.33;67.31;94378.69;5031135;28;20207;-77
2022/04/05 05:43:29;;;;;;;16.73;8.00;;;;;;;7.84;65.53;94373.38;5031063;28;20215;-75
2022/04/05 05:45:55;;;;;;;12.10;6.57;;;;;;;7.30;66.03;94380.09;5030482;28;20204;-75
2022/04/05 05:48:22;;;;;;;10.70;6.45;;;;;;;8.58;63.87;94374.31;5016228;28;20778;-77
2022/04/05 05:50:51;;;;;;;6.95;4.13;;;;;;;8.58;61.53;94374.31;5018914;28;20201;-77
2022/04/05 05:53:18;;;;;;;12.27;6.28;;;;;;;9.08;59.58;94366.38;5024404;28;20254;-76
2022/04/05 05:55:44;;;;;;;13.90;6.28;;;;;;;10.88;55.88;94363.47;5023310;28;20199;-78
2022/04/05 05:58:11;;;;;;;19.92;7.30;;;;;;;11.96;51.56;94350.28;5017662;28;20677;-78
2022/04/05 06:00:40;;;;;;;10.13;5.47;;;;;;;13.56;48.19;94344.47;5030012;28;20215;-77
2022/04/05 06:03:07;;;;;;;14.90;6.45;;;;;;;13.18;48.51;94349.75;5010861;28;20225;-78
2022/04/05 06:05:34;;;;;;;14.48;6.78;;;;;;;13.82;nan;94341.19;5017121;28;20197;-77
2022/04/05 06:08:01;;;;;;;15.55;9.02;;;;;;;13.25;47.87;94339.88;5018151;28;20208;-78
2022/04/05 06:10:28;;;;;;;11.35;6.05;;;;;;;13.82;46.17;94335.72;5024771;28;20204;-78
2022/04/05 06:12:57;;;;;;;11.20;7.10;;;;;;;13.79;46.11;94331.03;5023588;28;20356;-77
2022/04/05 06:15:26;;;;;;;10.75;6.18;;;;;;;14.28;45.62;94341.41;5023817;28;20311;-79
2022/04/05 06:17:54;;;;;;;14.25;7.03;;;;;;;14.36;45.83;94332.22;5018353;28;20208;-79
2022/04/05 06:20:22;;;;;;;13.02;7.50;;;;;;;15.25;42.80;94335.50;5030208;28;20205;-78
2022/04/05 06:22:52;;;;;;;18.10;7.63;;;;;;;14.80;43.29;94319.88;5030711;28;20215;-78
2022/04/05 06:25:20;;;;;;;13.68;9.23;;;;;;;15.24;42.90;94327.66;5015324;28;20233;-79
2022/04/05 06:27:47;;;;;;;13.32;8.82;;;;;;;16.17;41.29;94321.69;5030504;28;20679;-77
2022/04/05 06:30:17;;;;;;;15.25;8.82;;;;;;;17.51;39.15;94314.16;5029671;28;20270;-79
2022/04/05 06:32:44;;;;;;;12.25;8.95;;;;;;;18.85;36.42;94302.44;5020675;28;20287;-78
2022/04/05 06:35:13;;;;;;;20.63;9.20;;;;;;;18.26;36.18;94304.53;5010493;28;20209;-78
2022/04/05 06:37:43;;;;;;;21.83;9.23;;;;;;;18.23;36.36;94310.78;5011032;28;20209;-77
2022/04/05 06:40:11;;;;;;;18.95;9.32;;;;;;;16.70;39.06;94319.63;5010866;28;20291;-79
2022/04/05 06:42:42;;;;;;;15.65;8.77;;;;;;;16.66;39.47;94318.84;5010728;28;20324;-79
2022/04/05 06:45:11;;;;;;;14.90;8.93;;;;;;;17.36;38.00;94313.25;5028547;28;20281;-79
2022/04/05 06:47:38;;;;;;;14.68;9.25;;;;;;;18.15;37.31;94314.66;5029545;28;20227;-78
2022/04/05 06:50:08;;;;;;;14.68;8.88;;;;;;;17.75;37.00;94308.16;5030516;28;20294;-79
2022/04/05 06:52:37;;;;;;;13.32;8.32;;;;;;;15.40;40.66;94317.41;5018002;28;20221;-79
2022/04/05 06:55:04;;;;;;;15.45;9.25;;;;;;;13.73;44.36;94324.25;5017296;28;20382;-82
2022/04/05 06:57:31;;;;;;;15.13;9.35;;;;;;;14.00;44.73;94315.13;5030055;28;20718;-79
2022/04/05 06:59:58;;;;;;;14.60;7.93;;;;;;;14.89;43.18;94317.72;5031082;28;20644;-79
2022/04/05 07:02:25;;;;;;;15.57;8.45;;;;;;;16.09;41.00;94312.63;5033766;28;20591;-77
2022/04/05 07:04:52;;;;;;;16.75;7.97;;;;;;;16.20;40.57;94305.34;5034006;28;20223;-76
2022/04/05 07:07:19;;;;;;;13.27;8.13;;;;;;;14.07;44.75;94320.75;5020535;28;20556;-80
2022/04/05 07:09:47;;;;;;;14.02;8.13;;;;;;;12.84;47.27;94313.94;5022824;28;20216;-80
2022/04/05 07:12:14;;;;;;;13.60;8.30;;;;;;;12.99;47.45;94320.50;5032344;28;20205;-78
2022/04/05 07:14:41;;;;;;;13.43;7.22;;;;;;;13.78;45.58;94315.81;5013945;28;20241;-80
2022/04/05 07:17:08;;;;;;;11.05;7.43;;;;;;;13.66;44.99;94316.72;5014016;28;20205;-77
2022/04/05 07:19:35;;;;;;;11.85;6.93;;;;;;;14.31;43.91;94313.44;5013628;28;20212;-77
2022/04/05 07:22:02;;;;;;;12.00;7.20;;;;;;;14.37;44.89;94312.00;5016465;28;20216;-78
2022/04/05 07:24:30;;;;;;;11.95;7.53;;;;;;;15.14;42.63;94301.00;5022312;28;20205;-76
2022/04/05 07:26:59;;;;;;;11.52;6.28;;;;;;;14.40;43.38;94306.66;5016962;28;20767;-76
2022/04/05 07:29:26;;;;;;;18.55;7.95;;;;;;;13.06;46.52;94312.53;5034254;28;20207;-77
2022/04/05 07:31:53;;;;;;;22.02;8.88;;;;;;;12.63;48.14;94318.78;5033519;28;20204;-78
2022/04/05 07:34:19;;;;;;;12.43;7.05;;;;;;;13.68;46.14;94314.44;5033149;28;20239;-77
2022/04/05 07:36:46;;;;;;;14.02;8.00;;;;;;;13.87;45.85;94313.69;5030323;28;20208;-76
2022/04/05 07:39:13;;;;;;;10.75;7.28;;;;;;;14.38;44.90;94308.13;5014183;28;20212;-77
2022/04/05 07:41:40;;;;;;;10.27;7.45;;;;;;;13.70;45.76;94312.13;5013324;28;20212;-78
2022/04/05 07:44:09;;;;;;;14.05;7.22;;;;;;;13.16;46.28;94325.63;5013139;28;20248;-79
2022/04/05 07:46:36;;;;;;;14.57;7.40;;;;;;;13.11;47.03;94318.50;5013331;28;20584;-78
2022/04/05 07:49:03;;;;;;;9.60;6.63;;;;;;;11.17;51.21;94317.22;5013024;28;20235;-76
2022/04/05 07:51:29;;;;;;;12.32;8.13;;;;;;;10.98;52.40;94317.75;5012828;28;20208;-74
2022/04/05 07:53:57;;;;;;;10.25;7.00;;;;;;;11.97;50.08;94320.06;5013285;28;20623;-78
2022/04/05 07:56:24;;;;;;;14.45;7.65;;;;;;;11.33;51.28;94323.53;5013014;28;20555;-76
2022/04/05 07:58:50;;;;;;;11.57;7.05;;;;;;;11.50;50.34;94327.13;5013485;28;20213;-77
2022/04/05 08:01:19;;;;;;;10.70;6.78;;;;;;;11.78;50.11;94319.88;5012938;28;20712;-78
2022/04/05 08:03:46;;;;;;;9.50;6.05;;;;;;;12.16;49.75;94316.75;5012878;28;20295;-78
2022/04/05 08:06:13;;;;;;;11.18;7.70;;;;;;;12.64;49.17;94310.28;5013103;28;20204;-74
2022/04/05 08:08:40;;;;;;;13.57;8.23;;;;;;;11.89;49.34;94323.69;5013286;28;20205;-76
2022/04/05 08:11:07;;;;;;;13.57;7.63;;;;;;;12.18;50.04;94308.22;5025666;28;20205;-75
2022/04/05 08:13:34;;;;;;;13.55;6.57;;;;;;;11.50;50.01;94321.69;5012520;28;20240;-73
2022/04/05 08:16:01;;;;;;;12.90;7.30;;;;;;;11.32;50.52;94313.81;5012913;28;20209;-78
2022/04/05 08:18:30;;;;;;;10.93;7.07;;;;;;;11.03;51.19;94312.13;5013050;28;20596;-76
2022/04/05 08:20:57;;;;;;;10.32;7.07;;;;;;;11.77;49.92;94315.59;5011741;28;20777;-76
2022/04/05 08:23:24;;;;;;;13.63;6.97;;;;;;;11.83;49.99;94314.22;5014055;28;20205;-76
2022/04/05 08:25:51;;;;;;;12.73;8.50;;;;;;;12.08;49.15;94302.16;5018932;28;20204;-77
2022/04/05 08:28:19;;;;;;;12.98;7.22;;;;;;;12.69;47.52;94295.66;5032385;28;20209;-76
2022/04/05 08:30:46;;;;;;;12.00;7.63;;;;;;;12.91;48.06;94291.56;5032337;28;20246;-76
2022/04/05 08:33:12;;;;;;;11.40;8.10;;;;;;;12.41;48.22;94291.06;5031336;28;20809;-75
2022/04/05 08:35:41;;;;;;;10.57;7.07;;;;;;;12.67;48.62;94282.44;5030963;28;20200;-76
2022/04/05 08:38:09;;;;;;;12.73;6.63;;;;;;;12.35;47.34;94297.09;5018287;28;20205;-74
2022/04/05 08:40:36;;;;;;;10.57;7.68;;;;;;;12.22;47.58;94287.41;5012438;28;20307;-76
2022/04/05 08:43:03;;;;;;;11.07;6.75;;;;;;;12.96;45.61;94283.16;5012242;28;20217;-76
2022/04/05 08:45:30;;;;;;;12.35;7.25;;;;;;;12.91;45.40;94264.38;5011974;28;20234;-75
2022/04/05 08:47:58;;;;;;;12.15;7.20;;;;;;;12.73;47.31;94281.03;5011154;28;20648;-74
2022/04/05 08:50:27;;;;;;;12.63;7.68;;;;;;;12.83;46.50;94271.56;5011629;28;20212;-76
2022/04/05 08:52:56;;;;;;;11.85;8.40;;;;;;;12.88;47.04;94267.78;5011514;28;20216;-77
2022/04/05 08:55:24;;;;;;;10.80;7.57;;;;;;;12.74;47.67;94263.56;5012359;28;20668;-77
2022/04/05 08:57:51;;;;;;;10.95;7.10;;;;;;;12.19;47.31;94263.66;5011699;28;20227;-76
2022/04/05 09:00:20;;;;;;;11.30;6.45;;;;;;;11.77;47.60;94271.38;5011747;28;20216;-75
2022/04/05 09:02:58;;;;;;;11.82;7.45;;;;;;;11.84;47.44;94266.97;5011773;28;20240;-73
2022/04/05 09:05:33;;;;;;;10.27;7.78;;;;;;;11.57;47.51;94259.53;5012027;28;20615;-74
2022/04/05 09:08:29;;;;;;;11.38;7.25;;;;;;;11.64;47.49;94257.03;5018132;28;20212;-76
2022/04/05 09:11:12;;;;;;;12.60;5.82;;;;;;;12.01;44.10;94250.41;5002968;28;20296;-76
2022/04/05 09:13:39;;;;;;;10.10;6.32;;;;;;;12.33;43.07;94239.59;5011645;28;20768;-76
2022/04/05 09:16:08;;;;;;;10.38;5.47;;;;;;;12.80;40.93;94235.00;5012013;28;20208;-77
2022/04/05 09:18:39;;;;;;;5.82;4.07;;;;;;;12.69;37.21;94231.25;5011683;28;20209;-77
2022/04/05 09:21:08;;;;;;;7.35;4.85;;;;;;;12.43;40.28;94244.53;5011624;28;20204;-76
2022/04/05 09:23:41;;;;;;;13.63;5.97;;;;;;;13.09;41.71;94233.75;5013706;28;20612;-77
2022/04/05 09:26:09;;;;;;;9.23;4.07;;;;;;;13.40;36.39;94227.50;5031080;28;20200;-77
2022/04/05 09:28:38;;;;;;;5.88;3.58;;;;;;;13.88;35.36;94225.41;5031227;28;20667;-76
2022/04/05 09:31:07;;;;;;;6.15;4.03;;;;;;;13.52;36.58;94230.13;5031189;28;20303;-76
2022/04/05 09:33:36;;;;;;;8.75;4.10;;;;;;;13.15;37.01;94223.41;5031286;28;20232;-75
2022/04/05 09:36:07;;;;;;;7.30;4.18;;;;;;;13.00;38.04;94224.97;5031222;28;20213;-77
2022/04/05 09:38:34;;;;;;;8.75;5.13;;;;;;;12.43;40.32;94228.25;5031507;28;20208;-77
2022/04/05 09:41:14;;;;;;;10.55;5.75;;;;;;;13.08;40.77;94220.53;5031666;28;20582;-76
2022/04/05 09:43:54;;;;;;;12.52;4.75;;;;;;;13.51;39.28;94214.94;5031075;28;20243;-80
2022/04/05 09:46:22;;;;;;;6.75;4.97;;;;;;;13.24;39.97;94213.16;5015965;28;20259;-77
2022/04/05 09:49:02;;;;;;;7.30;4.97;;;;;;;13.60;41.15;94216.66;5010949;28;20735;-77
2022/04/05 09:51:29;;;;;;;8.38;4.78;;;;;;;13.15;39.93;94215.25;5011041;28;20714;-78
2022/04/05 09:53:57;;;;;;;7.55;4.68;;;;;;;13.81;38.92;94203.47;5021786;28;20228;-74
2022/04/05 09:56:30;;;;;;;7.90;4.78;;;;;;;13.24;37.75;94202.28;5031128;28;20214;-77
2022/04/05 09:58:58;;;;;;;7.30;4.25;;;;;;;12.70;39.08;94202.94;5030996;28;20208;-77
2022/04/05 10:01:28;;;;;;;8.40;4.00;;;;;;;13.05;39.77;94199.47;5030653;28;20328;-75
2022/04/05 10:04:00;;;;;;;10.05;5.40;;;;;;;12.64;39.79;94196.16;5030490;28;20667;-80
2022/04/05 10:06:29;;;;;;;7.80;5.20;;;;;;;13.13;39.32;94199.25;5030821;28;20204;-77
2022/04/05 10:08:56;;;;;;;9.48;4.97;;;;;;;12.48;40.05;94192.66;5030440;28;20212;-78
2022/04/05 10:11:26;;;;;;;6.70;5.15;;;;;;;12.54;41.48;94191.25;5022782;28;20208;-76
2022/04/05 10:13:54;;;;;;;7.07;5.15;;;;;;;12.83;39.98;94187.31;5010784;28;20244;-80
2022/04/05 10:16:24;;;;;;;9.73;5.05;;;;;;;13.11;39.86;94177.09;5010783;28;20213;-77
2022/04/05 10:18:53;;;;;;;8.48;5.30;;;;;;;13.42;40.15;94178.94;5026956;28;20303;-76
2022/04/05 10:21:22;;;;;;;9.13;5.05;;;;;;;13.06;39.57;94180.09;5030325;28;20280;-78
2022/04/05 10:23:49;;;;;;;8.68;4.90;;;;;;;12.37;40.59;94176.09;5024469;28;20540;-79
2022/04/05 10:26:19;;;;;;;10.65;5.55;;;;;;;12.73;40.90;94164.16;5010352;28;20674;-76
2022/04/05 10:28:50;;;;;;;8.52;4.95;;;;;;;13.37;39.88;94162.94;5010490;28;20680;-78
2022/04/05 10:31:24;;;;;;;8.48;5.03;;;;;;;13.81;39.55;94154.47;5010681;28;20201;-80
2022/04/05 10:34:01;;;;;;;10.05;4.80;;;;;;;13.57;39.95;94160.22;5010638;28;20220;-78
2022/04/05 10:36:28;;;;;;;7.20;4.70;;;;;;;13.30;38.89;94154.59;5014361;28;20236;-77
2022/04/05 10:39:15;;;;;;;9.20;4.75;;;;;;;13.09;39.13;94154.13;5014038;28;20292;-78
2022/04/05 10:41:42;;;;;;;8.10;4.70;;;;;;;13.22;39.58;94150.16;5014342;28;20294;-78
2022/04/05 10:44:24;;;;;;;8.57;4.80;;;;;;;13.85;38.17;94147.94;5014292;28;20239;-75
2022/04/05 10:46:57;;;;;;;7.72;4.50;;;;;;;13.84;38.57;94142.88;5014791;28;20205;-77
2022/04/05 10:49:39;;;;;;;6.35;3.53;;;;;;;13.43;38.49;94145.16;5027554;28;20229;-77
2022/04/05 10:52:08;;;;;;;7.65;4.75;;;;;;;13.49;38.72;94132.88;5033465;28;20224;-77
2022/04/05 10:54:40;;;;;;;9.77;4.45;;;;;;;14.13;39.05;94128.63;5017683;28;20732;-76
2022/04/05 10:57:21;;;;;;;7.97;4.60;;;;;;;14.22;38.14;94125.66;5014103;28;20239;-78
2022/04/05 10:59:51;;;;;;;7.03;4.32;;;;;;;14.02;37.52;94132.31;5014420;28;20288;-75
2022/04/05 11:02:35;;;;;;;9.57;4.60;;;;;;;13.82;39.50;94124.16;5013912;28;20228;-77
2022/04/05 11:05:23;;;;;;;6.43;4.50;;;;;;;13.57;38.21;94122.09;5013661;28;20208;-79
2022/04/05 11:08:23;;;;;;;6.53;4.40;;;;;;;13.39;39.23;94129.94;5013469;28;20208;-78
2022/04/05 11:10:54;;;;;;;5.55;4.13;;;;;;;13.22;39.04;94122.97;4946333;29;20226;-74
2022/04/05 11:13:40;;;;;;;9.02;4.28;;;;;;;13.58;38.48;94104.63;4999311;28;20420;-77
2022/04/05 11:16:12;;;;;;;7.72;4.57;;;;;;;13.74;37.98;94105.34;5014178;28;20207;-77
2022/04/05 11:18:41;;;;;;;7.70;4.60;;;;;;;13.68;38.23;94104.03;5013232;28;20209;-76
2022/04/05 11:21:10;;;;;;;8.38;4.88;;;;;;;14.01;38.50;94098.84;5013431;28;20243;-76
2022/04/05 11:23:48;;;;;;;7.05;4.43;;;;;;;14.38;38.10;94095.56;5017764;28;20200;-77
2022/04/05 11:26:26;;;;;;;9.52;4.07;;;;;;;13.93;37.66;94094.44;5033243;28;20642;-76
2022/04/05 11:28:54;;;;;;;7.45;4.63;;;;;;;13.57;38.54;94092.97;5033097;28;20215;-77
2022/04/05 11:31:39;;;;;;;7.13;4.50;;;;;;;13.42;38.90;94089.16;5033363;28;20255;-75
2022/04/05 11:34:35;;;;;;;12.98;5.03;;;;;;;13.55;39.20;94087.09;5033735;28;20223;-78
2022/04/05 11:37:03;;;;;;;7.70;4.50;;;;;;;13.72;38.88;94081.19;5033093;28;20204;-76
2022/04/05 11:39:30;;;;;;;10.50;5.38;;;;;;;14.01;39.03;94063.44;5033481;28;20272;-75